Terminal Aerodrome Forecast
Issued by NWS

Home | Current Version | Previous Version | Graphics & Text | Print | Product List | Glossary On
Versions: 1 2 3 4 5 6 7 8 9 10 11 12 13 14 15 16 17 18 19 20 21 22 23 24 25 26 27 28 29 30 31
000
FTUS43 KLOT 170254 AAA
TAFORD
TAF AMD
KORD 170254Z 1703/1806 25006KT P6SM SCT250
     FM170500 23006KT P6SM FEW180 BKN250
     FM171600 21012KT P6SM BKN100
     FM172000 22012KT 3SM -SHSN SCT020 OVC030
      TEMPO 1721/1723 1SM -SHSN SCT015 OVC020
     FM180000 26009KT P6SM SCT025=

USA.gov is the U.S. government's official web portal to all federal, state and local government web resources and services.